Rockport, Texas
Current Conditions -  °F | °C
As of 1:53 PM on Thursday 30 Oct 2014 (Local Time) from KRKP Reporting Station
Clear Clear  
Wind Chill: 83°   Ceiling: Unl
Heat Index: 87°   Visibility: 10mi
Dew Point: 70°   Wind: 10mph
Humidity: 65%   Direction: 80°E
Pressure: 30.05"   Gusts: NA
Location:  28.01°N, 97.06°W
Report Text: KRKP 301853Z AUTO 08009KT 10SM CLR 28/21 A3005 RMK AO2 SLP177 T02830211
Loading
Personal Weather Stations






























Interactive Weather Map New forecast layout! Learn more

10-Day Weather Forecast

Advertisements
Track Severe Weather on mobile